LFKF/FSC METAR and TAF weather

Enter ICAO airport designator
Station Type Date Time Source
LFKF METAR 2021/05/10 01:30 UTC NOAA

LFKF 100130Z AUTO 07014KT CAVOK 15/13 Q1014


Station Type Date Time Source
LFKF Decoded METAR 2021/05/10 01:30 UTC NOAA

Figari, France (LFKF) 41-30N 009-06E 23M
May 09, 2021 - 09:30 PM EDT / 2021.05.10 0130 UTC
Wind: from the ENE (070 degrees) at 16 MPH (14 KT):0
Visibility: greater than 7 mile(s):0
Temperature: 59 F (15 C)
Dew Point: 55 F (13 C)
Relative Humidity: 87%
Pressure (altimeter): 29.94 in. Hg (1014 hPa)
ob: LFKF 100130Z AUTO 07014KT CAVOK 15/13 Q1014
cycle: 1

Station Type Date Time Source
LFKF TAF 2021/05/09 21:50 UTC NOAA

TAF LFKF 092138Z 0921/1015 CNL

Example: see airport list